Time;durP1;ratioP1;P1;durP2;ratioP2;P2;SDS_P1;SDS_P2;PMS_P1;PMS_P2;Temp;Humidity;BMP_temperature;BMP_pressure;BME280_temperature;BME280_humidity;BME280_pressure;Samples;Min_cycle;Max_cycle;Signal;HPM_P1;HPM_P2
2021/06/25 00:01:12;;;;;;;9.23;3.60;;;;;;;28.80;54.69;101256.95;1653012;86;21498;-55
2021/06/25 00:03:39;;;;;;;10.70;3.95;;;;;;;28.79;54.65;101256.58;1655179;85;21654;-56
2021/06/25 00:06:06;;;;;;;11.95;3.77;;;;;;;28.79;54.61;101259.78;1659716;85;21040;-49
2021/06/25 00:08:33;;;;;;;12.58;3.77;;;;;;;28.78;54.56;101261.59;1652757;85;21053;-54
2021/06/25 00:11:00;;;;;;;10.95;3.98;;;;;;;28.78;54.64;101253.56;1644502;86;21168;-50
2021/06/25 00:13:27;;;;;;;10.93;3.60;;;;;;;28.79;54.64;101253.91;1654346;86;21552;-52
2021/06/25 00:15:54;;;;;;;10.90;3.27;;;;;;;28.78;54.65;101256.24;1652053;86;21125;-50
2021/06/25 00:18:21;;;;;;;13.93;4.58;;;;;;;28.80;54.73;101259.63;1650629;86;20981;-50
2021/06/25 00:20:48;;;;;;;12.53;4.10;;;;;;;28.82;54.76;101262.16;1659294;85;21078;-54
2021/06/25 00:23:15;;;;;;;16.87;4.62;;;;;;;28.80;54.81;101258.77;1653210;86;21461;-50
2021/06/25 00:25:42;;;;;;;13.70;4.90;;;;;;;28.80;54.74;101267.66;1655224;85;21088;-57
2021/06/25 00:28:09;;;;;;;15.78;4.75;;;;;;;28.79;54.57;101264.61;1657166;86;21053;-53
2021/06/25 00:30:36;;;;;;;19.23;4.78;;;;;;;28.82;54.62;101267.52;1660442;85;21093;-53
2021/06/25 00:33:03;;;;;;;14.07;4.47;;;;;;;28.79;54.65;101265.13;1655027;85;21064;-53
2021/06/25 00:35:30;;;;;;;13.78;5.10;;;;;;;28.77;54.58;101266.59;1656321;85;21116;-54
2021/06/25 00:37:57;;;;;;;14.65;4.83;;;;;;;28.76;54.60;101267.59;1650022;86;21010;-50
2021/06/25 00:40:24;;;;;;;16.17;4.65;;;;;;;28.75;54.65;101271.72;1654337;85;21053;-50
2021/06/25 00:42:51;;;;;;;14.50;4.97;;;;;;;28.73;54.75;101271.86;1632456;86;21053;-56
2021/06/25 00:45:19;;;;;;;15.32;4.90;;;;;;;28.72;54.73;101280.05;1629112;86;21159;-53
2021/06/25 00:47:48;;;;;;;15.45;4.92;;;;;;;28.69;54.87;101275.80;1630960;87;21518;-51
2021/06/25 00:50:18;;;;;;;14.00;5.25;;;;;;;28.68;54.71;101279.48;1590838;89;21088;-51
2021/06/25 00:52:45;;;;;;;11.30;5.10;;;;;;;28.66;54.84;101284.13;1629796;87;21537;-57
2021/06/25 00:55:13;;;;;;;18.52;5.15;;;;;;;28.63;54.87;101284.38;1588851;89;21135;-55
2021/06/25 00:57:40;;;;;;;16.67;4.85;;;;;;;28.60;55.00;101282.00;1622533;86;21040;-55
2021/06/25 01:00:09;;;;;;;14.07;4.58;;;;;;;28.57;55.14;101286.27;1635461;87;21086;-55
2021/06/25 01:02:36;;;;;;;11.85;4.00;;;;;;;28.52;55.26;101275.06;1646605;84;21058;-50
2021/06/25 01:05:05;;;;;;;13.62;4.83;;;;;;;28.50;55.58;101282.39;1648975;86;21514;-55
2021/06/25 01:07:32;;;;;;;10.80;4.37;;;;;;;28.49;55.55;101283.39;1659382;84;21102;-50
2021/06/25 01:10:05;;;;;;;17.82;4.22;;;;;;;28.44;55.60;101276.24;1659552;86;21032;-55
2021/06/25 01:12:32;;;;;;;15.13;4.05;;;;;;;28.45;55.65;101281.97;1657902;85;21593;-50
2021/06/25 01:15:00;;;;;;;15.43;4.58;;;;;;;28.42;55.97;101278.20;1648327;86;21069;-51
2021/06/25 01:17:36;;;;;;;14.53;4.30;;;;;;;28.42;55.97;101278.20;1662084;86;21010;-50
2021/06/25 01:20:09;;;;;;;17.65;4.28;;;;;;;28.40;55.92;101269.46;1644319;86;21057;-53
2021/06/25 01:22:41;;;;;;;13.53;4.85;;;;;;;28.38;55.87;101265.25;1637138;86;21129;-51
2021/06/25 01:25:24;;;;;;;15.58;4.60;;;;;;;28.36;56.14;101268.04;1626458;87;21064;-58
2021/06/25 01:27:53;;;;;;;14.18;4.65;;;;;;;28.33;56.29;101248.25;1632084;86;21069;-49
2021/06/25 01:30:23;;;;;;;16.32;5.10;;;;;;;28.33;56.21;101243.37;1630849;86;21105;-50
2021/06/25 01:32:51;;;;;;;15.63;5.40;;;;;;;28.31;56.31;101244.86;1635407;87;21046;-54
2021/06/25 01:35:18;;;;;;;13.98;4.80;;;;;;;28.27;56.31;101234.07;1637790;86;21770;-55
2021/06/25 01:37:45;;;;;;;9.63;4.72;;;;;;;28.28;56.36;101251.81;1596912;89;21090;-51
2021/06/25 01:40:15;;;;;;;11.83;4.15;;;;;;;28.28;56.36;101251.81;1596721;88;21125;-53
2021/06/25 01:42:43;;;;;;;12.15;4.53;;;;;;;28.27;56.62;101258.16;1573460;89;21118;-52
2021/06/25 01:45:12;;;;;;;15.15;4.67;;;;;;;28.17;56.67;101255.42;1575016;89;21053;-50
2021/06/25 01:47:40;;;;;;;15.28;5.22;;;;;;;28.17;56.67;101255.42;1576749;89;21126;-53
2021/06/25 01:50:11;;;;;;;19.32;5.45;;;;;;;28.13;57.18;101251.32;1602807;88;21095;-52
2021/06/25 01:52:45;;;;;;;20.52;5.08;;;;;;;28.11;57.48;101239.05;1596603;88;21097;-55
2021/06/25 01:55:12;;;;;;;12.45;4.78;;;;;;;28.12;57.50;101244.29;1583435;89;21070;-56
2021/06/25 01:57:39;;;;;;;14.15;5.10;;;;;;;28.12;57.68;101254.14;1586769;89;21547;-51
2021/06/25 02:00:07;;;;;;;14.23;4.47;;;;;;;28.14;57.76;101249.50;1577189;90;21051;-54
2021/06/25 02:02:36;;;;;;;13.72;4.35;;;;;;;28.14;57.63;101254.85;1587236;89;21128;-57
2021/06/25 02:05:05;;;;;;;19.67;4.67;;;;;;;28.15;57.66;101249.88;1590387;89;21064;-55
2021/06/25 02:07:31;;;;;;;14.75;4.65;;;;;;;28.15;57.66;101249.88;1585648;89;21205;-51
2021/06/25 02:09:58;;;;;;;18.37;5.42;;;;;;;28.11;58.00;101247.93;1578988;89;21021;-51
2021/06/25 02:12:27;;;;;;;17.20;5.25;;;;;;;28.11;58.00;101247.93;1614350;87;21099;-51
2021/06/25 02:14:54;;;;;;;19.00;4.78;;;;;;;28.13;57.62;101267.37;1617273;87;21082;-49
2021/06/25 02:17:22;;;;;;;17.70;5.87;;;;;;;28.13;57.62;101267.37;1630329;87;21057;-53
2021/06/25 02:19:49;;;;;;;17.67;5.67;;;;;;;28.12;57.85;101268.38;1623704;87;21112;-54
2021/06/25 02:22:16;;;;;;;17.07;5.10;;;;;;;28.12;57.85;101272.38;1625567;87;21108;-52
2021/06/25 02:24:44;;;;;;;12.15;4.60;;;;;;;28.13;57.83;101267.89;1592224;89;21046;-54
2021/06/25 02:27:11;;;;;;;14.10;4.80;;;;;;;28.09;57.92;101262.41;1636046;87;21073;-50
2021/06/25 02:29:38;;;;;;;13.28;4.90;;;;;;;28.08;58.10;101260.73;1632653;87;21048;-53
2021/06/25 02:32:06;;;;;;;17.17;4.75;;;;;;;28.10;58.39;101256.09;1634367;87;21152;-52
2021/06/25 02:34:33;;;;;;;15.23;5.30;;;;;;;28.10;58.39;101256.09;1628542;87;21053;-54
2021/06/25 02:37:02;;;;;;;14.50;4.45;;;;;;;28.07;58.35;101248.33;1631457;87;21038;-52
2021/06/25 02:39:30;;;;;;;16.35;5.45;;;;;;;28.10;58.52;101264.13;1632568;87;21097;-51
2021/06/25 02:41:57;;;;;;;14.85;5.03;;;;;;;28.09;58.58;101265.95;1627422;87;21526;-51
2021/06/25 02:44:24;;;;;;;16.93;5.75;;;;;;;28.10;58.65;101274.83;1627509;87;21605;-53
2021/06/25 02:46:51;;;;;;;19.80;5.33;;;;;;;28.10;58.65;101274.83;1624841;87;21060;-55
2021/06/25 02:49:18;;;;;;;15.30;4.42;;;;;;;28.10;58.57;101269.48;1627812;87;21061;-55
2021/06/25 02:51:46;;;;;;;17.98;5.83;;;;;;;28.08;58.76;101269.62;1618593;87;21565;-53
2021/06/25 02:54:14;;;;;;;19.32;5.47;;;;;;;28.11;58.79;101268.48;1635097;86;21066;-50
2021/06/25 02:56:41;;;;;;;15.70;4.75;;;;;;;28.10;58.88;101267.66;1623805;86;21030;-50
2021/06/25 02:59:08;;;;;;;16.30;4.85;;;;;;;28.09;58.95;101258.41;1626247;86;21069;-53
2021/06/25 03:01:35;;;;;;;16.87;5.67;;;;;;;28.12;59.00;101264.84;1587333;89;21593;-52
2021/06/25 03:04:02;;;;;;;19.37;5.35;;;;;;;28.13;58.99;101262.53;1654022;85;21572;-50
2021/06/25 03:06:29;;;;;;;17.55;6.33;;;;;;;28.11;59.10;101265.80;1654567;85;21069;-50
2021/06/25 03:08:56;;;;;;;18.10;6.05;;;;;;;28.13;59.00;101263.87;1657155;86;21013;-50
2021/06/25 03:11:23;;;;;;;18.17;4.92;;;;;;;28.12;59.07;101254.14;1642603;86;21034;-53
2021/06/25 03:13:52;;;;;;;19.45;4.70;;;;;;;28.11;59.11;101253.28;1648799;86;21645;-56
2021/06/25 03:16:19;;;;;;;19.12;5.58;;;;;;;28.14;59.09;101246.83;1631858;86;21078;-53
2021/06/25 03:18:48;;;;;;;18.42;5.53;;;;;;;28.15;58.73;101249.88;1649802;86;21112;-55
2021/06/25 03:21:17;;;;;;;14.80;5.28;;;;;;;28.15;59.15;101252.03;1647834;86;21109;-51
2021/06/25 03:23:46;;;;;;;16.55;5.40;;;;;;;28.15;59.15;101252.03;1637845;86;21105;-50
2021/06/25 03:26:13;;;;;;;19.67;6.03;;;;;;;28.22;59.16;101257.70;1651637;86;21081;-54
2021/06/25 03:28:40;;;;;;;11.80;4.58;;;;;;;28.22;59.16;101257.70;1643029;86;21094;-58
2021/06/25 03:31:07;;;;;;;16.12;4.90;;;;;;;28.16;59.57;101263.59;1649387;86;21101;-51
2021/06/25 03:33:34;;;;;;;15.15;4.35;;;;;;;28.16;59.18;101271.62;1655661;85;21135;-51
2021/06/25 03:36:01;;;;;;;11.03;3.95;;;;;;;28.16;59.18;101271.62;1651892;86;21002;-52
2021/06/25 03:38:30;;;;;;;9.08;3.62;;;;;;;28.16;59.38;101279.64;1653050;86;21100;-57
2021/06/25 03:40:57;;;;;;;11.03;4.15;;;;;;;28.15;59.55;101276.63;1656171;85;21053;-53
2021/06/25 03:43:24;;;;;;;10.35;3.72;;;;;;;28.16;59.71;101274.30;1643945;86;21085;-53
2021/06/25 03:45:52;;;;;;;14.98;4.35;;;;;;;28.16;59.71;101274.30;1647210;86;21083;-55
2021/06/25 03:48:19;;;;;;;13.62;4.33;;;;;;;28.21;59.73;101274.75;1655441;86;21041;-53
2021/06/25 03:50:48;;;;;;;9.85;4.08;;;;;;;28.25;59.73;101275.33;1660634;86;21581;-53
2021/06/25 03:53:15;;;;;;;10.70;4.60;;;;;;;28.26;59.66;101272.51;1653664;86;21094;-50
2021/06/25 03:58:28;;;;;;;11.83;4.58;;;;;;;28.27;59.82;101279.57;1652495;85;21077;-55
2021/06/25 04:00:55;;;;;;;13.48;5.22;;;;;;;28.25;60.00;101282.88;1650973;84;21084;-50
2021/06/25 04:03:22;;;;;;;14.73;5.85;;;;;;;28.21;59.93;101270.74;1640890;85;21181;-54
2021/06/25 04:05:50;;;;;;;17.27;5.30;;;;;;;28.21;59.93;101270.74;1650276;86;21073;-52
2021/06/25 04:08:18;;;;;;;13.95;5.85;;;;;;;28.19;59.93;101271.37;1655404;85;21192;-53
2021/06/25 04:10:47;;;;;;;11.50;4.72;;;;;;;28.20;60.00;101274.38;1633177;87;21093;-50
2021/06/25 04:13:14;;;;;;;15.55;5.17;;;;;;;28.20;60.02;101270.37;1632882;86;21041;-50
2021/06/25 04:15:41;;;;;;;15.43;5.92;;;;;;;28.22;60.07;101255.02;1620188;87;21538;-50
2021/06/25 04:18:08;;;;;;;17.23;6.17;;;;;;;28.23;60.07;101262.09;1586681;89;21123;-54
2021/06/25 04:20:35;;;;;;;15.28;4.70;;;;;;;28.22;60.06;101265.73;1656354;85;21604;-50
2021/06/25 04:23:02;;;;;;;17.48;5.33;;;;;;;28.24;60.16;101263.77;1655370;86;21057;-55
2021/06/25 04:25:30;;;;;;;16.07;4.70;;;;;;;28.24;60.31;101262.42;1640737;86;21117;-51
2021/06/25 04:27:57;;;;;;;11.00;4.50;;;;;;;28.26;60.25;101262.28;1625600;87;21098;-52
2021/06/25 04:30:24;;;;;;;11.60;4.67;;;;;;;28.28;60.26;101259.84;1627385;86;21550;-56
2021/06/25 04:32:51;;;;;;;16.97;5.80;;;;;;;28.31;60.44;101262.27;1635057;87;21586;-52
2021/06/25 04:35:18;;;;;;;14.30;5.28;;;;;;;28.44;60.63;101268.20;1653163;86;21019;-55
2021/06/25 04:37:45;;;;;;;16.82;5.97;;;;;;;28.44;60.63;101268.20;1656634;85;21596;-50
2021/06/25 04:40:14;;;;;;;16.45;6.42;;;;;;;28.53;60.51;101275.44;1656990;86;21625;-53
2021/06/25 04:42:41;;;;;;;14.95;5.70;;;;;;;28.62;60.47;101281.37;1653075;85;21124;-58
2021/06/25 04:45:10;;;;;;;13.32;5.60;;;;;;;28.70;60.37;101282.02;1649976;86;21116;-53
2021/06/25 04:47:40;;;;;;;13.93;5.40;;;;;;;28.78;60.21;101276.33;1651655;86;21081;-57
2021/06/25 04:50:08;;;;;;;17.75;5.90;;;;;;;28.88;60.21;101285.72;1654892;85;21581;-55
2021/06/25 04:52:36;;;;;;;18.65;6.97;;;;;;;28.97;59.81;101286.23;1651960;85;21469;-51
2021/06/25 04:55:05;;;;;;;13.45;5.45;;;;;;;29.09;59.60;101282.94;1648155;86;21081;-52
2021/06/25 04:57:32;;;;;;;16.80;5.08;;;;;;;29.20;59.32;101277.48;1661350;86;22225;-54
2021/06/25 05:00:01;;;;;;;14.20;5.30;;;;;;;29.29;58.98;101272.61;1651183;85;21041;-52
2021/06/25 05:02:28;;;;;;;18.55;6.03;;;;;;;29.40;58.72;101268.45;1645945;86;21030;-55
2021/06/25 05:04:55;;;;;;;16.07;5.45;;;;;;;29.51;58.41;101267.80;1642294;86;21166;-50
2021/06/25 05:07:22;;;;;;;12.70;5.40;;;;;;;29.62;58.15;101269.00;1650233;85;21045;-53
2021/06/25 05:09:49;;;;;;;9.18;4.75;;;;;;;29.76;57.83;101271.75;1658898;86;21061;-51
2021/06/25 05:12:16;;;;;;;21.40;6.70;;;;;;;29.91;57.40;101276.17;1656406;85;21124;-54
2021/06/25 05:14:43;;;;;;;17.62;5.67;;;;;;;30.03;56.77;101271.84;1657464;86;21494;-54
2021/06/25 05:17:10;;;;;;;18.25;5.50;;;;;;;30.15;56.47;101273.87;1639329;86;21093;-53
2021/06/25 05:19:38;;;;;;;23.98;6.22;;;;;;;30.26;56.19;101274.52;1646257;85;21103;-53
2021/06/25 05:22:06;;;;;;;15.15;5.30;;;;;;;30.35;55.69;101262.94;1657261;85;21104;-52
2021/06/25 05:24:33;;;;;;;24.07;6.75;;;;;;;30.44;54.91;101266.06;1642453;86;21087;-53
2021/06/25 05:27:00;;;;;;;18.65;6.28;;;;;;;30.53;54.48;101269.21;1652378;86;21120;-56
2021/06/25 05:29:27;;;;;;;17.05;5.90;;;;;;;30.65;54.46;101277.91;1640529;86;21082;-53
2021/06/25 05:31:55;;;;;;;15.72;5.72;;;;;;;30.73;54.36;101274.48;1652824;85;21105;-51
2021/06/25 05:34:22;;;;;;;14.98;5.75;;;;;;;30.83;54.35;101271.24;1653871;85;21506;-51
2021/06/25 05:36:49;;;;;;;18.85;6.12;;;;;;;30.93;53.93;101268.02;1661853;85;21057;-53
2021/06/25 05:39:16;;;;;;;16.85;5.40;;;;;;;31.02;53.60;101269.78;1647349;85;21100;-53
2021/06/25 05:41:43;;;;;;;14.58;5.95;;;;;;;31.13;52.67;101266.88;1660270;85;21096;-52
2021/06/25 05:44:11;;;;;;;14.25;4.70;;;;;;;31.22;51.90;101265.97;1651521;86;21095;-53
2021/06/25 05:46:39;;;;;;;19.05;5.25;;;;;;;31.34;51.58;101258.02;1649102;86;21144;-51
2021/06/25 05:49:07;;;;;;;12.98;4.78;;;;;;;31.48;50.86;101257.49;1655882;85;21106;-53
2021/06/25 05:51:34;;;;;;;14.73;5.12;;;;;;;31.62;50.14;101255.58;1657323;84;21096;-52
2021/06/25 05:54:01;;;;;;;13.05;4.83;;;;;;;31.77;49.36;101256.70;1655801;85;21025;-53
2021/06/25 05:56:28;;;;;;;16.00;5.10;;;;;;;31.89;48.95;101259.97;1656439;85;21016;-52
2021/06/25 05:58:55;;;;;;;12.25;4.58;;;;;;;31.99;48.21;101253.52;1647747;85;21045;-54
2021/06/25 06:01:22;;;;;;;12.93;4.62;;;;;;;32.03;47.48;101260.27;1660871;85;21056;-53
2021/06/25 06:03:49;;;;;;;13.85;4.42;;;;;;;32.00;47.05;101259.26;1650837;85;21095;-55
2021/06/25 06:06:17;;;;;;;9.48;4.25;;;;;;;31.94;46.86;101261.20;1652794;86;21026;-50
2021/06/25 06:08:44;;;;;;;14.28;5.45;;;;;;;31.86;46.58;101268.38;1656502;85;21072;-51
2021/06/25 06:11:11;;;;;;;12.95;4.70;;;;;;;31.76;46.46;101266.27;1662175;84;21045;-52
2021/06/25 06:13:38;;;;;;;10.72;4.28;;;;;;;31.64;46.46;101272.91;1660421;86;21077;-51
2021/06/25 06:16:05;;;;;;;12.58;4.53;;;;;;;31.50;46.67;101264.91;1648560;85;21073;-52
2021/06/25 06:18:49;;;;;;;12.58;4.72;;;;;;;31.38;46.73;101268.80;1653374;86;21859;-52
2021/06/25 06:21:19;;;;;;;10.08;4.15;;;;;;;31.27;47.12;101273.06;1652666;86;21072;-52
2021/06/25 06:32:18;;;;;;;15.80;5.33;;;;;;;30.85;48.44;101282.72;1638600;86;21015;-54
2021/06/25 06:34:39;;;;;;;24.57;6.20;;;;;;;30.78;48.99;101285.61;1651969;85;21089;-51
2021/06/25 06:37:06;;;;;;;15.75;6.70;;;;;;;30.69;50.19;101281.13;1631424;86;21058;-52
2021/06/25 06:39:33;;;;;;;17.60;6.40;;;;;;;30.67;51.04;101291.17;1651155;85;21109;-52
2021/06/25 06:42:00;;;;;;;20.70;6.35;;;;;;;30.65;51.59;101293.16;1658168;86;21034;-53
2021/06/25 06:44:29;;;;;;;15.68;6.70;;;;;;;30.61;52.05;101293.97;1652956;86;21513;-54
2021/06/25 06:46:56;;;;;;;21.02;7.28;;;;;;;30.59;52.29;101297.30;1657241;86;21081;-52
2021/06/25 06:49:23;;;;;;;22.42;7.05;;;;;;;30.54;52.69;101299.09;1658817;86;21072;-53
2021/06/25 06:51:52;;;;;;;16.55;6.87;;;;;;;30.53;52.97;101301.44;1653104;85;21049;-56
2021/06/25 06:54:18;;;;;;;18.23;6.12;;;;;;;30.51;52.98;101302.58;1650008;86;21025;-56
2021/06/25 06:56:47;;;;;;;13.50;5.97;;;;;;;30.51;52.74;101299.89;1653827;85;21541;-56
2021/06/25 06:59:13;;;;;;;21.57;6.45;;;;;;;30.49;52.85;101293.33;1655008;85;21116;-54
2021/06/25 07:01:41;;;;;;;17.27;6.12;;;;;;;30.47;53.10;101295.81;1659814;84;21540;-52
2021/06/25 07:04:08;;;;;;;13.62;6.33;;;;;;;30.47;53.08;101298.50;1649460;85;21558;-53
2021/06/25 07:06:35;;;;;;;16.60;6.90;;;;;;;30.44;53.31;101300.97;1644155;86;21026;-51
2021/06/25 07:09:02;;;;;;;20.35;7.33;;;;;;;30.44;53.51;101302.31;1655502;85;21052;-54
2021/06/25 07:11:28;;;;;;;17.77;6.55;;;;;;;30.43;53.69;101300.64;1652554;85;21025;-51
2021/06/25 07:13:57;;;;;;;19.82;8.53;;;;;;;30.45;53.91;101302.68;1651023;86;21144;-54
2021/06/25 07:16:23;;;;;;;19.02;7.08;;;;;;;30.44;54.07;101302.31;1649063;86;21109;-52
2021/06/25 07:18:51;;;;;;;17.92;7.08;;;;;;;30.47;53.95;101304.72;1658644;85;21081;-51
2021/06/25 07:23:47;;;;;;;17.85;5.50;;;;;;;30.52;53.89;101315.84;1606605;87;21077;-52
2021/06/25 07:26:15;;;;;;;22.27;7.00;;;;;;;30.56;53.87;101312.88;1615929;87;21121;-52
2021/06/25 07:28:41;;;;;;;18.20;5.87;;;;;;;30.59;53.94;101312.56;1606286;87;21106;-58
2021/06/25 07:31:09;;;;;;;19.05;6.53;;;;;;;30.64;53.93;101310.30;1593861;87;21220;-55
2021/06/25 07:33:35;;;;;;;16.02;6.50;;;;;;;30.69;54.03;101313.36;1608548;86;21011;-52
2021/06/25 07:36:03;;;;;;;15.43;6.37;;;;;;;30.76;53.98;101322.53;1592050;88;21541;-56
2021/06/25 07:38:30;;;;;;;17.55;7.05;;;;;;;30.82;54.07;101320.10;1588739;88;21015;-52
2021/06/25 07:40:57;;;;;;;15.65;6.53;;;;;;;30.88;53.94;101318.67;1572347;88;21670;-53
2021/06/25 07:43:24;;;;;;;14.85;6.75;;;;;;;30.92;53.62;101315.55;1601868;87;21216;-52
2021/06/25 07:45:52;;;;;;;16.77;6.92;;;;;;;30.99;53.68;101321.17;1607526;87;21582;-52
2021/06/25 07:48:19;;;;;;;21.70;7.20;;;;;;;31.04;53.28;101322.89;1603416;87;21211;-53
2021/06/25 07:50:47;;;;;;;24.75;7.35;;;;;;;31.11;53.15;101317.27;1599895;88;21023;-56
2021/06/25 07:53:14;;;;;;;19.15;6.47;;;;;;;31.18;53.09;101312.98;1600515;88;21141;-56
2021/06/25 07:55:43;;;;;;;12.75;5.40;;;;;;;31.27;52.55;101317.42;1609697;88;21026;-56
2021/06/25 07:58:11;;;;;;;15.70;6.10;;;;;;;31.33;52.13;101319.50;1599434;88;21027;-55
2021/06/25 08:01:16;;;;;;;20.62;6.37;;;;;;;31.41;51.97;101320.95;1596041;88;21105;-52
2021/06/25 08:03:42;;;;;;;17.12;6.00;;;;;;;31.46;51.91;101320.02;1599070;89;21118;-51
2021/06/25 08:06:11;;;;;;;21.60;7.28;;;;;;;31.51;51.51;101325.75;1596381;88;21071;-53
2021/06/25 08:08:57;;;;;;;17.95;6.55;;;;;;;31.56;51.83;101330.19;1606192;87;21052;-53
2021/06/25 08:11:24;;;;;;;14.28;5.45;;;;;;;31.62;51.87;101330.91;1603181;89;21078;-53
2021/06/25 08:13:51;;;;;;;16.85;5.35;;;;;;;31.70;51.38;101325.59;1605515;87;21050;-53
2021/06/25 08:16:18;;;;;;;14.75;7.78;;;;;;;31.79;51.04;101328.71;1600171;88;21118;-53
2021/06/25 08:18:46;;;;;;;15.50;6.55;;;;;;;31.83;50.94;101326.55;1594650;88;21589;-52
2021/06/25 08:21:13;;;;;;;16.57;5.90;;;;;;;31.88;51.25;101329.09;1640405;86;21060;-57
2021/06/25 08:23:40;;;;;;;24.63;7.42;;;;;;;31.95;51.25;101328.86;1643383;86;21565;-53
2021/06/25 08:26:07;;;;;;;17.15;7.15;;;;;;;32.01;51.18;101334.96;1648863;86;21050;-52
2021/06/25 08:28:34;;;;;;;12.43;6.50;;;;;;;32.05;51.17;101341.72;1657356;86;21165;-53
2021/06/25 08:31:00;;;;;;;14.70;6.08;;;;;;;32.09;51.18;101342.24;1653709;84;21088;-54
2021/06/25 08:33:27;;;;;;;18.67;6.22;;;;;;;32.11;51.30;101339.41;1659010;85;21053;-53
2021/06/25 08:35:54;;;;;;;18.65;9.58;;;;;;;32.14;51.71;101348.51;1649752;85;21589;-54
2021/06/25 08:38:20;;;;;;;21.55;8.85;;;;;;;32.19;51.39;101342.16;1656025;86;21072;-52
2021/06/25 08:40:48;;;;;;;17.50;6.55;;;;;;;32.23;51.48;101346.22;1645703;86;21025;-52
2021/06/25 08:43:16;;;;;;;16.55;6.85;;;;;;;32.28;51.16;101343.88;1640839;86;21109;-53
2021/06/25 08:45:43;;;;;;;16.37;6.15;;;;;;;32.32;50.90;101344.76;1648600;86;21096;-52
2021/06/25 08:48:10;;;;;;;18.20;6.03;;;;;;;32.36;50.56;101341.23;1660035;84;21056;-54
2021/06/25 08:50:40;;;;;;;14.35;7.20;;;;;;;32.40;49.90;101346.15;1650869;86;21037;-53
2021/06/25 08:53:07;;;;;;;11.48;4.90;;;;;;;32.43;49.67;101336.91;1651173;86;21600;-53
2021/06/25 08:55:43;;;;;;;14.98;5.47;;;;;;;32.47;48.73;101331.58;1640970;86;21111;-56
2021/06/25 08:58:03;;;;;;;13.20;5.80;;;;;;;32.50;47.79;101327.23;1648798;86;21100;-55
2021/06/25 09:00:30;;;;;;;18.67;9.48;;;;;;;32.54;46.64;101321.86;1655254;84;21075;-53
2021/06/25 09:02:56;;;;;;;10.32;4.72;;;;;;;32.58;45.93;101321.87;1657456;85;21048;-55
2021/06/25 09:05:27;;;;;;;12.73;4.50;;;;;;;32.59;45.59;101324.40;1647228;86;21069;-56
2021/06/25 09:07:55;;;;;;;16.40;5.47;;;;;;;32.58;44.94;101321.87;1658876;85;21078;-55
2021/06/25 09:10:37;;;;;;;11.80;5.17;;;;;;;32.59;45.67;101312.27;1650630;85;21120;-55
2021/06/25 09:13:07;;;;;;;14.95;7.42;;;;;;;32.58;46.44;101309.75;1609175;87;21196;-53
2021/06/25 09:15:34;;;;;;;19.35;7.95;;;;;;;32.58;46.91;101310.57;1590818;89;21136;-51
2021/06/25 09:18:05;;;;;;;10.70;4.85;;;;;;;32.59;46.92;101308.73;1579584;89;21095;-52
2021/06/25 09:20:36;;;;;;;8.58;3.60;;;;;;;32.59;46.88;101304.69;1622304;87;21161;-53
2021/06/25 09:23:26;;;;;;;12.33;4.53;;;;;;;32.60;46.28;101303.70;1522912;92;21171;-55
2021/06/25 09:25:57;;;;;;;11.33;5.65;;;;;;;32.54;45.66;101302.47;1536595;92;21080;-51
2021/06/25 09:28:29;;;;;;;13.62;5.03;;;;;;;32.62;46.19;101304.37;1536589;91;21165;-52
2021/06/25 09:30:56;;;;;;;13.10;5.10;;;;;;;32.69;46.66;101305.40;1537351;92;21076;-53
2021/06/25 09:33:23;;;;;;;12.30;7.55;;;;;;;32.72;47.18;101302.39;1540669;92;21110;-57
2021/06/25 09:35:55;;;;;;;20.50;12.28;;;;;;;32.75;47.40;101304.74;1538310;92;21092;-57
2021/06/25 09:38:36;;;;;;;17.02;7.65;;;;;;;32.80;47.36;101305.11;1536520;92;21119;-60
2021/06/25 09:41:17;;;;;;;16.52;5.45;;;;;;;32.83;47.39;101304.77;1537850;92;21088;-54
2021/06/25 09:44:06;;;;;;;10.82;4.83;;;;;;;32.88;47.66;101306.48;1472159;95;21092;-53
2021/06/25 09:46:37;;;;;;;14.65;4.30;;;;;;;32.93;47.30;101301.95;1490674;94;21116;-54
2021/06/25 09:49:11;;;;;;;15.45;4.83;;;;;;;32.95;46.17;101303.48;1484709;94;21152;-53
2021/06/25 09:51:42;;;;;;;9.68;4.30;;;;;;;32.98;45.91;101300.48;1452124;96;21129;-53
2021/06/25 09:54:15;;;;;;;8.90;4.28;;;;;;;33.00;46.01;101294.41;1451232;97;21139;-52
2021/06/25 10:02:24;;;;;;;10.43;4.10;;;;;;;33.03;45.03;101295.45;1451526;96;22462;-58
2021/06/25 10:05:08;;;;;;;9.83;4.47;;;;;;;33.02;44.73;101299.14;1450850;97;21129;-52
2021/06/25 10:07:33;;;;;;;14.50;5.42;;;;;;;33.00;44.97;101293.06;1430916;98;21217;-52
2021/06/25 10:10:07;;;;;;;12.93;4.72;;;;;;;32.99;45.54;101294.09;1421611;98;21263;-51
2021/06/25 10:12:43;;;;;;;10.28;4.92;;;;;;;32.97;45.80;101293.38;1434331;98;21134;-52
2021/06/25 10:15:12;;;;;;;15.03;8.33;;;;;;;32.98;45.85;101284.30;1434973;99;21679;-52
2021/06/25 10:17:40;;;;;;;14.60;5.70;;;;;;;32.97;46.12;101289.83;1439891;98;21177;-53
2021/06/25 10:20:10;;;;;;;15.28;4.90;;;;;;;32.97;46.08;101283.95;1480191;93;21112;-52
2021/06/25 10:22:38;;;;;;;9.73;4.70;;;;;;;32.98;46.21;101284.30;1517592;93;21048;-55
2021/06/25 10:25:07;;;;;;;9.63;4.85;;;;;;;33.02;46.24;101284.31;1521611;92;21057;-55
2021/06/25 10:27:35;;;;;;;11.25;4.37;;;;;;;33.03;45.77;101271.19;1516641;94;21114;-53
2021/06/25 10:30:03;;;;;;;27.30;23.70;;;;;;;33.07;45.76;101276.58;1552988;91;21157;-53
2021/06/25 10:32:30;;;;;;;17.05;8.08;;;;;;;33.11;45.37;101273.89;1565894;90;21097;-53
2021/06/25 10:34:57;;;;;;;13.75;4.95;;;;;;;33.13;45.23;101269.17;1584405;90;21115;-55
2021/06/25 10:37:25;;;;;;;12.10;4.87;;;;;;;33.14;45.26;101276.23;1578934;90;21610;-54
2021/06/25 10:39:52;;;;;;;16.87;4.40;;;;;;;33.13;44.81;101277.27;1580652;90;21641;-54
2021/06/25 10:42:19;;;;;;;13.28;5.58;;;;;;;33.10;45.35;101281.63;1579704;90;21133;-53
2021/06/25 10:44:54;;;;;;;11.90;4.72;;;;;;;33.08;45.46;101275.55;1621283;86;21085;-52
2021/06/25 10:50:05;;;;;;;9.03;4.60;;;;;;;33.04;45.79;101275.55;1592635;89;21123;-52
2021/06/25 10:52:35;;;;;;;10.30;4.87;;;;;;;33.01;45.74;101269.16;1583414;90;21076;-53
2021/06/25 10:55:06;;;;;;;10.93;6.25;;;;;;;33.00;45.19;101271.50;1580581;89;21129;-53
2021/06/25 10:57:38;;;;;;;12.07;8.78;;;;;;;32.98;44.75;101271.31;1589345;89;21091;-58
2021/06/25 11:00:07;;;;;;;15.75;6.50;;;;;;;32.98;45.26;101268.13;1577526;89;21553;-54
2021/06/25 11:02:42;;;;;;;10.50;5.22;;;;;;;32.97;45.49;101262.88;1582228;89;21703;-55
2021/06/25 11:05:35;;;;;;;16.60;5.75;;;;;;;32.94;45.18;101260.00;1586109;89;21102;-52
2021/06/25 11:08:19;;;;;;;10.70;4.37;;;;;;;32.94;45.36;101255.95;1575208;89;21176;-52
2021/06/25 11:10:54;;;;;;;11.90;5.42;;;;;;;32.92;45.56;101258.47;1580357;89;21182;-52
2021/06/25 11:13:25;;;;;;;10.68;4.65;;;;;;;32.89;45.66;101251.58;1509634;93;21699;-54
2021/06/25 11:15:56;;;;;;;9.93;4.97;;;;;;;32.85;45.72;101258.31;1512234;94;21600;-55
2021/06/25 11:18:29;;;;;;;10.18;4.40;;;;;;;32.82;45.67;101247.84;1511119;94;21092;-54
2021/06/25 11:21:05;;;;;;;10.75;4.17;;;;;;;32.79;45.55;101244.11;1496358;94;21657;-53
2021/06/25 11:23:42;;;;;;;7.60;4.55;;;;;;;32.74;45.49;101235.70;1497684;94;21108;-54
2021/06/25 11:26:25;;;;;;;10.95;4.15;;;;;;;32.68;45.50;101229.13;1492712;94;21175;-52
2021/06/25 11:28:55;;;;;;;13.72;5.55;;;;;;;32.65;45.78;101233.97;1465701;96;21093;-59
2021/06/25 11:31:27;;;;;;;10.20;4.17;;;;;;;32.61;46.15;101233.47;1458024;96;21106;-56
2021/06/25 11:33:58;;;;;;;9.63;4.40;;;;;;;32.59;45.98;101233.28;1449672;98;21618;-59
2021/06/25 11:36:39;;;;;;;9.03;4.80;;;;;;;32.59;45.77;101242.71;1462173;96;21185;-52
2021/06/25 11:39:34;;;;;;;9.90;4.15;;;;;;;32.57;45.76;101232.60;1439311;98;21171;-52
2021/06/25 11:42:10;;;;;;;5.92;3.50;;;;;;;32.54;45.62;101234.30;1453277;97;21189;-53
2021/06/25 11:44:49;;;;;;;7.70;3.87;;;;;;;32.53;45.92;101240.67;1446455;98;21081;-52
2021/06/25 11:52:27;;;;;;;9.30;4.00;;;;;;;32.45;46.26;101237.92;1385919;101;21192;-54